Flight Track Log - Related Links

Times and Time Zones

All times are in EDT time to prevent confusion due to time zone crossing. See the WIG1045 flight status page for this flight to view local times or setup timezone preferences in your user account.

Time Position Orientation Groundspeed Altitude Reporting Facility
EDT Latitude Longitude Course Direction KTS MPH feet Rate Location/Type
Fri 07:55:00 PM 44.5936 -69.1383 226° Southwest  Level Estimated
Fri 07:56:00 PM 44.5574 -69.1890 225° Southwest  Level FlightAware Approximate
Fri 07:57:00 PM 44.5216 -69.2405 225° Southwest  Level Estimated
Fri 07:58:00 PM 44.4856 -69.2915 225° Southwest  Level FlightAware Approximate
Fri 07:59:00 PM 44.4495 -69.3424 225° Southwest  Level FlightAware Approximate
Fri 08:00:00 PM 44.4135 -69.3932 225° Southwest  Level FlightAware Approximate
Fri 08:01:00 PM 44.3774 -69.4440 225° Southwest  Level FlightAware Approximate
Fri 08:02:00 PM 44.3412 -69.4948 225° Southwest  Level FlightAware Approximate
Fri 08:03:00 PM 44.3051 -69.5454 225° Southwest  Level FlightAware Approximate
Fri 08:04:00 PM 44.2689 -69.5960 225° Southwest  Level FlightAware Approximate
Fri 08:05:00 PM 44.2327 -69.6466 225° Southwest  Level FlightAware Approximate
Fri 08:06:00 PM 44.1965 -69.6971 225° Southwest  Level FlightAware Approximate
Fri 08:07:00 PM 44.1603 -69.7475 225° Southwest  Level FlightAware Approximate
Fri 08:08:00 PM 44.1241 -69.7979 225° Southwest  Level FlightAware Approximate
Fri 08:09:00 PM 44.0878 -69.8482 225° Southwest  Level FlightAware Approximate
Fri 08:10:00 PM 44.0515 -69.8984 225° Southwest  Level FlightAware Approximate
Fri 08:11:00 PM 44.0151 -69.9486 225° Southwest  Level FlightAware Approximate
Fri 08:12:00 PM 43.9792 -69.9993 224° Southwest  Level Estimated
Fri 08:13:00 PM 43.9428 -70.0492 225° Southwest  Level FlightAware Approximate
Fri 08:14:00 PM 43.9064 -70.0991 225° Southwest  Level FlightAware Approximate
Fri 08:15:00 PM 43.8699 -70.1490 225° Southwest  Level FlightAware Approximate
Fri 08:16:00 PM 43.8334 -70.1988 225° Southwest  Level FlightAware Approximate
Fri 08:17:00 PM 43.7969 -70.2485 225° Southwest  Level FlightAware Approximate
Fri 08:17:10 PM 43.6333 -70.5333 224° Southwest 233 268 8,100  Level KA90
Fri 08:18:00 PM 43.7604 -70.2982 224° Southwest  Level FlightAware Approximate
Fri 08:18:04 PM 43.6000 -70.6000 235° Southwest 234 269 8,100  Level KA90
Fri 08:19:00 PM 43.7238 -70.3478 224° Southwest  Level FlightAware Approximate
Fri 08:19:04 PM 43.5500 -70.6500 216° Southwest 232 267 8,100  Level KA90
Fri 08:20:00 PM 43.6872 -70.3973 224° Southwest  Level FlightAware Approximate
Fri 08:20:04 PM 43.5000 -70.7167 224° Southwest 231 266 8,100  Level KA90
Fri 08:21:00 PM 43.6506 -70.4468 224° Southwest  Level FlightAware Approximate
Fri 08:21:10 PM 43.4500 -70.7833 224° Southwest 230 265 8,100  Level KA90
Fri 08:21:58 PM 43.4167 -70.8167 216° Southwest 230 265 8,100  Level KA90
Fri 08:22:00 PM 43.6140 -70.4962 224° Southwest  Level FlightAware Approximate
Fri 08:22:58 PM 43.3667 -70.8833 224° Southwest 230 265 8,100  Level KA90
Fri 08:23:58 PM 43.3167 -70.9500 224° Southwest 228 262 8,100 -190 Level KA90
Fri 08:25:04 PM 43.2667 -71.0167 224° Southwest 238 274 7,700 -500 Descending KA90
Fri 08:26:10 PM 43.2167 -71.0833 224° Southwest 247 284 7,000 -762 Descending KA90
Fri 08:27:10 PM 43.1667 -71.1500 224° Southwest 251 289 6,100 -950 Descending KA90
Fri 08:28:10 PM 43.1167 -71.2167 224° Southwest 257 296 5,100 -1,200 Descending KA90
Fri 08:29:10 PM 43.0667 -71.2833 224° Southwest 257 296 3,700 -1,526 Descending KA90
Fri 08:30:04 PM 43.0167 -71.3500 224° Southwest 235 270 2,200 -1,158 Descending KA90
Fri 08:31:04 PM 42.9833 -71.3833 216° Southwest 122 140 1,500 -750 Descending KA90
Fri 08:32:04 PM 42.9500 -71.4167 216° Southwest 112 129 700 -800 Descending KA90
Fri 08:34:00 PM 42.9328 -71.4358 222° Southwest  Level Estimated

Login

Don't have an account? Register now (free) for customized features, flight alerts, and more!